DAL9574 SEGU-SPYL
Flight info
| Callsign | DAL9574 |
|---|---|
| Flight time | 0h 33m |
| Altitude | 22000 |
| Route | MIMIT2 PUNAS DCT BES UV1 TAL |
| Aircraft | A320/M-SDE3FGHIRWY/LB1 |
Departure
| Time | 2026-05-08 01:02 |
|---|---|
| Airport | José Joaquín de Olmedo International Airport (SEGU) |
Arrival
| Time | 2026-05-08 01:35 |
|---|---|
| Airport | Captain Victor Montes Arias International Airport (SPYL) |
| Time | Latitude | Longitude | Altitude | Speed | Heading |
|---|---|---|---|---|---|
| 2026-05-08 00:32 | -2.14829 | -79.88303 | 22 ft | 0 kts | 300° |
| 2026-05-08 00:47 | -2.14838 | -79.88287 | 21 ft | 4 kts | 295° |
| 2026-05-08 00:48 | -2.14848 | -79.88263 | 21 ft | 4 kts | 280° |
| 2026-05-08 00:48 | -2.14848 | -79.88238 | 21 ft | 4 kts | 235° |
| 2026-05-08 00:48 | -2.14841 | -79.88231 | 21 ft | 0 kts | 210° |
| 2026-05-08 00:51 | -2.14845 | -79.88233 | 21 ft | 4 kts | 210° |
| 2026-05-08 00:51 | -2.14895 | -79.88261 | 24 ft | 12 kts | 209° |
| 2026-05-08 00:51 | -2.14992 | -79.88316 | 23 ft | 19 kts | 210° |
| 2026-05-08 00:51 | -2.15100 | -79.88378 | 23 ft | 17 kts | 210° |
| 2026-05-08 00:52 | -2.15183 | -79.88366 | 22 ft | 11 kts | 122° |
| 2026-05-08 00:52 | -2.15222 | -79.88296 | 22 ft | 16 kts | 119° |
| 2026-05-08 00:52 | -2.15289 | -79.88220 | 21 ft | 10 kts | 181° |
| 2026-05-08 00:52 | -2.15366 | -79.88257 | 21 ft | 16 kts | 211° |
| 2026-05-08 00:53 | -2.15453 | -79.88308 | 21 ft | 14 kts | 210° |
| 2026-05-08 00:53 | -2.15553 | -79.88367 | 21 ft | 18 kts | 211° |
| 2026-05-08 00:53 | -2.15658 | -79.88427 | 21 ft | 16 kts | 210° |
| 2026-05-08 00:53 | -2.15758 | -79.88485 | 22 ft | 18 kts | 209° |
| 2026-05-08 00:54 | -2.15860 | -79.88543 | 24 ft | 17 kts | 210° |
| 2026-05-08 00:54 | -2.15963 | -79.88602 | 23 ft | 19 kts | 211° |
| 2026-05-08 00:54 | -2.16072 | -79.88665 | 23 ft | 17 kts | 210° |
| 2026-05-08 00:54 | -2.16168 | -79.88721 | 24 ft | 16 kts | 210° |
| 2026-05-08 00:55 | -2.16262 | -79.88775 | 22 ft | 15 kts | 210° |
| 2026-05-08 00:55 | -2.16340 | -79.88821 | 22 ft | 11 kts | 210° |
| 2026-05-08 00:55 | -2.16406 | -79.88859 | 23 ft | 14 kts | 210° |
| 2026-05-08 00:55 | -2.16496 | -79.88911 | 23 ft | 14 kts | 210° |
| 2026-05-08 00:56 | -2.16566 | -79.88951 | 22 ft | 7 kts | 210° |
| 2026-05-08 00:56 | -2.16569 | -79.88953 | 22 ft | 0 kts | 210° |
| 2026-05-08 00:57 | -2.16579 | -79.88959 | 22 ft | 9 kts | 210° |
| 2026-05-08 00:57 | -2.16643 | -79.88995 | 23 ft | 9 kts | 210° |
| 2026-05-08 00:57 | -2.16675 | -79.89007 | 23 ft | 6 kts | 185° |
| 2026-05-08 00:57 | -2.16717 | -79.88979 | 22 ft | 8 kts | 122° |
| 2026-05-08 00:58 | -2.16716 | -79.88937 | 24 ft | 5 kts | 66° |
| 2026-05-08 00:58 | -2.16691 | -79.88913 | 22 ft | 5 kts | 33° |
| 2026-05-08 00:58 | -2.16685 | -79.88910 | 22 ft | 0 kts | 30° |
| 2026-05-08 01:01 | -2.16636 | -79.88882 | 22 ft | 35 kts | 29° |
| 2026-05-08 01:01 | -2.16164 | -79.88610 | 24 ft | 119 kts | 30° |
| 2026-05-08 01:02 | -2.15248 | -79.88075 | 126 ft | 174 kts | 31° |
| 2026-05-08 01:02 | -2.14198 | -79.87461 | 1007 ft | 176 kts | 30° |
| 2026-05-08 01:02 | -2.13129 | -79.86857 | 1945 ft | 177 kts | 29° |
| 2026-05-08 01:02 | -2.12054 | -79.86183 | 2405 ft | 194 kts | 44° |
| 2026-05-08 01:03 | -2.11494 | -79.84928 | 2751 ft | 209 kts | 92° |
| 2026-05-08 01:03 | -2.12017 | -79.83592 | 3202 ft | 219 kts | 136° |
| 2026-05-08 01:03 | -2.13369 | -79.82927 | 3788 ft | 224 kts | 170° |
| 2026-05-08 01:03 | -2.14928 | -79.82748 | 4463 ft | 227 kts | 177° |
| 2026-05-08 01:04 | -2.16503 | -79.82688 | 5219 ft | 227 kts | 177° |
| 2026-05-08 01:04 | -2.18100 | -79.82622 | 5865 ft | 232 kts | 178° |
| 2026-05-08 01:04 | -2.19727 | -79.82548 | 6530 ft | 236 kts | 177° |
| 2026-05-08 01:04 | -2.21372 | -79.82468 | 7205 ft | 238 kts | 177° |
| 2026-05-08 01:05 | -2.23038 | -79.82565 | 7773 ft | 247 kts | 191° |
| 2026-05-08 01:05 | -2.24806 | -79.82903 | 8027 ft | 271 kts | 191° |
| 2026-05-08 01:05 | -2.26714 | -79.83289 | 8442 ft | 286 kts | 192° |
| 2026-05-08 01:05 | -2.28685 | -79.83694 | 9113 ft | 292 kts | 192° |
| 2026-05-08 01:06 | -2.30686 | -79.84103 | 9815 ft | 295 kts | 192° |
| 2026-05-08 01:06 | -2.32722 | -79.84517 | 10397 ft | 306 kts | 191° |
| 2026-05-08 01:06 | -2.34887 | -79.84951 | 10563 ft | 328 kts | 191° |
| 2026-05-08 01:06 | -2.37173 | -79.85413 | 10988 ft | 340 kts | 191° |
| 2026-05-08 01:07 | -2.39510 | -79.85886 | 11611 ft | 345 kts | 191° |
| 2026-05-08 01:07 | -2.41879 | -79.86366 | 12283 ft | 348 kts | 191° |
| 2026-05-08 01:07 | -2.44264 | -79.86847 | 12946 ft | 352 kts | 191° |
| 2026-05-08 01:07 | -2.46646 | -79.87327 | 13569 ft | 355 kts | 191° |
| 2026-05-08 01:08 | -2.49110 | -79.87824 | 14196 ft | 359 kts | 191° |
| 2026-05-08 01:08 | -2.51537 | -79.88314 | 14791 ft | 362 kts | 191° |
| 2026-05-08 01:08 | -2.54015 | -79.88811 | 15081 ft | 365 kts | 190° |
| 2026-05-08 01:08 | -2.56518 | -79.89311 | 15657 ft | 367 kts | 190° |
| 2026-05-08 01:09 | -2.59033 | -79.89813 | 16242 ft | 370 kts | 190° |
| 2026-05-08 01:09 | -2.61570 | -79.90326 | 16796 ft | 373 kts | 190° |
| 2026-05-08 01:09 | -2.64125 | -79.90842 | 17336 ft | 376 kts | 190° |
| 2026-05-08 01:09 | -2.66702 | -79.91363 | 17862 ft | 379 kts | 190° |
| 2026-05-08 01:10 | -2.69302 | -79.91888 | 18382 ft | 382 kts | 190° |
| 2026-05-08 01:10 | -2.71924 | -79.92414 | 18879 ft | 385 kts | 189° |
| 2026-05-08 01:10 | -2.74563 | -79.92945 | 19366 ft | 388 kts | 189° |
| 2026-05-08 01:10 | -2.77220 | -79.93490 | 19827 ft | 392 kts | 192° |
| 2026-05-08 01:11 | -2.79819 | -79.94377 | 20276 ft | 397 kts | 203° |
| 2026-05-08 01:11 | -2.82253 | -79.95722 | 20708 ft | 402 kts | 210° |
| 2026-05-08 01:11 | -2.84663 | -79.97170 | 21144 ft | 405 kts | 210° |
| 2026-05-08 01:11 | -2.87095 | -79.98631 | 21586 ft | 409 kts | 210° |
| 2026-05-08 01:12 | -2.89515 | -80.00081 | 21942 ft | 412 kts | 210° |
| 2026-05-08 01:12 | -2.91964 | -80.01546 | 22011 ft | 404 kts | 210° |
| 2026-05-08 01:12 | -2.94355 | -80.02977 | 22009 ft | 397 kts | 210° |
| 2026-05-08 01:12 | -2.96716 | -80.04387 | 22003 ft | 395 kts | 209° |
| 2026-05-08 01:13 | -2.99073 | -80.05791 | 22003 ft | 394 kts | 209° |
| 2026-05-08 01:13 | -3.01429 | -80.07196 | 21989 ft | 394 kts | 209° |
| 2026-05-08 01:13 | -3.03786 | -80.08605 | 21987 ft | 395 kts | 209° |
| 2026-05-08 01:13 | -3.06145 | -80.10015 | 21978 ft | 395 kts | 209° |
| 2026-05-08 01:14 | -3.08507 | -80.11423 | 21959 ft | 395 kts | 209° |
| 2026-05-08 01:14 | -3.10861 | -80.12828 | 21957 ft | 394 kts | 209° |
| 2026-05-08 01:14 | -3.13218 | -80.14237 | 21953 ft | 394 kts | 210° |
| 2026-05-08 01:14 | -3.15574 | -80.15647 | 21953 ft | 394 kts | 210° |
| 2026-05-08 01:15 | -3.17929 | -80.17056 | 21949 ft | 394 kts | 210° |
| 2026-05-08 01:15 | -3.20279 | -80.18467 | 21946 ft | 394 kts | 210° |
| 2026-05-08 01:15 | -3.22630 | -80.19878 | 21939 ft | 394 kts | 210° |
| 2026-05-08 01:15 | -3.24959 | -80.21273 | 21937 ft | 394 kts | 210° |
| 2026-05-08 01:16 | -3.27315 | -80.22682 | 21933 ft | 394 kts | 210° |
| 2026-05-08 01:16 | -3.29670 | -80.24090 | 21928 ft | 394 kts | 210° |
| 2026-05-08 01:16 | -3.32024 | -80.25499 | 21923 ft | 394 kts | 210° |
| 2026-05-08 01:16 | -3.34378 | -80.26904 | 21917 ft | 394 kts | 210° |
| 2026-05-08 01:17 | -3.36735 | -80.28309 | 21913 ft | 394 kts | 210° |
| 2026-05-08 01:17 | -3.39097 | -80.29721 | 21909 ft | 394 kts | 210° |
| 2026-05-08 01:17 | -3.41453 | -80.31133 | 21908 ft | 394 kts | 210° |
| 2026-05-08 01:17 | -3.43804 | -80.32540 | 21904 ft | 394 kts | 210° |
| 2026-05-08 01:18 | -3.46159 | -80.33950 | 21902 ft | 394 kts | 210° |
| 2026-05-08 01:18 | -3.48511 | -80.35355 | 21899 ft | 394 kts | 210° |
| 2026-05-08 01:18 | -3.50869 | -80.36764 | 21897 ft | 394 kts | 210° |
| 2026-05-08 01:18 | -3.53191 | -80.38231 | 21895 ft | 395 kts | 216° |
| 2026-05-08 01:19 | -3.55230 | -80.40068 | 21895 ft | 396 kts | 227° |
| 2026-05-08 01:19 | -3.56935 | -80.42244 | 21894 ft | 397 kts | 233° |
| 2026-05-08 01:19 | -3.58577 | -80.44460 | 21892 ft | 397 kts | 233° |
| 2026-05-08 01:19 | -3.60227 | -80.46668 | 21890 ft | 397 kts | 232° |
| 2026-05-08 01:20 | -3.61891 | -80.48878 | 21888 ft | 397 kts | 232° |
| 2026-05-08 01:20 | -3.63552 | -80.51081 | 21891 ft | 396 kts | 232° |
| 2026-05-08 01:20 | -3.65209 | -80.53286 | 21826 ft | 394 kts | 232° |
| 2026-05-08 01:20 | -3.66818 | -80.55432 | 21575 ft | 386 kts | 232° |
| 2026-05-08 01:21 | -3.68409 | -80.57564 | 21322 ft | 378 kts | 232° |
| 2026-05-08 01:21 | -3.69968 | -80.59652 | 21071 ft | 372 kts | 232° |
| 2026-05-08 01:21 | -3.71512 | -80.61719 | 20825 ft | 370 kts | 232° |
| 2026-05-08 01:21 | -3.73051 | -80.63777 | 20573 ft | 368 kts | 232° |
| 2026-05-08 01:22 | -3.74580 | -80.65824 | 20322 ft | 367 kts | 232° |
| 2026-05-08 01:22 | -3.76106 | -80.67865 | 20071 ft | 365 kts | 232° |
| 2026-05-08 01:22 | -3.77622 | -80.69893 | 19819 ft | 363 kts | 232° |
| 2026-05-08 01:22 | -3.79133 | -80.71914 | 19569 ft | 362 kts | 232° |
| 2026-05-08 01:23 | -3.80635 | -80.73923 | 19313 ft | 360 kts | 231° |
| 2026-05-08 01:23 | -3.82133 | -80.75926 | 19060 ft | 359 kts | 231° |
| 2026-05-08 01:23 | -3.83626 | -80.77922 | 18818 ft | 357 kts | 231° |
| 2026-05-08 01:23 | -3.85113 | -80.79909 | 18570 ft | 355 kts | 231° |
| 2026-05-08 01:24 | -3.86589 | -80.81883 | 18317 ft | 354 kts | 231° |
| 2026-05-08 01:24 | -3.88059 | -80.83852 | 18067 ft | 352 kts | 231° |
| 2026-05-08 01:24 | -3.89524 | -80.85815 | 17817 ft | 350 kts | 231° |
| 2026-05-08 01:24 | -3.90961 | -80.87737 | 17570 ft | 349 kts | 231° |
| 2026-05-08 01:25 | -3.92413 | -80.89680 | 17320 ft | 347 kts | 231° |
| 2026-05-08 01:25 | -3.93856 | -80.91610 | 17069 ft | 345 kts | 231° |
| 2026-05-08 01:25 | -3.95293 | -80.93530 | 16821 ft | 344 kts | 231° |
| 2026-05-08 01:25 | -3.96724 | -80.95447 | 16567 ft | 342 kts | 231° |
| 2026-05-08 01:26 | -3.98145 | -80.97351 | 16319 ft | 341 kts | 231° |
| 2026-05-08 01:26 | -3.99563 | -80.99250 | 16050 ft | 341 kts | 231° |
| 2026-05-08 01:26 | -4.01010 | -81.01119 | 15680 ft | 338 kts | 224° |
| 2026-05-08 01:26 | -4.02867 | -81.02499 | 15285 ft | 332 kts | 205° |
| 2026-05-08 01:27 | -4.04943 | -81.03506 | 14834 ft | 332 kts | 202° |
| 2026-05-08 01:27 | -4.07041 | -81.04473 | 14383 ft | 332 kts | 202° |
| 2026-05-08 01:27 | -4.09148 | -81.05436 | 13933 ft | 333 kts | 202° |
| 2026-05-08 01:27 | -4.11256 | -81.06394 | 13482 ft | 333 kts | 202° |
| 2026-05-08 01:28 | -4.13369 | -81.07348 | 13020 ft | 333 kts | 202° |
| 2026-05-08 01:28 | -4.15484 | -81.08298 | 12574 ft | 333 kts | 202° |
| 2026-05-08 01:28 | -4.17568 | -81.09230 | 12132 ft | 332 kts | 203° |
| 2026-05-08 01:28 | -4.19528 | -81.10444 | 11674 ft | 332 kts | 219° |
| 2026-05-08 01:29 | -4.21225 | -81.12000 | 11216 ft | 326 kts | 222° |
| 2026-05-08 01:29 | -4.22840 | -81.13533 | 10765 ft | 315 kts | 223° |
| 2026-05-08 01:29 | -4.24415 | -81.15028 | 10318 ft | 311 kts | 223° |
| 2026-05-08 01:29 | -4.25976 | -81.16506 | 9858 ft | 306 kts | 223° |
| 2026-05-08 01:30 | -4.27525 | -81.17963 | 9404 ft | 303 kts | 222° |
| 2026-05-08 01:30 | -4.29100 | -81.19357 | 8958 ft | 300 kts | 214° |
| 2026-05-08 01:30 | -4.30945 | -81.20245 | 8496 ft | 295 kts | 198° |
| 2026-05-08 01:30 | -4.32890 | -81.20911 | 7909 ft | 296 kts | 198° |
| 2026-05-08 01:31 | -4.34839 | -81.21565 | 7258 ft | 295 kts | 198° |
| 2026-05-08 01:31 | -4.36777 | -81.22222 | 6627 ft | 291 kts | 198° |
| 2026-05-08 01:31 | -4.38649 | -81.22855 | 6006 ft | 284 kts | 198° |
| 2026-05-08 01:31 | -4.40505 | -81.23479 | 5371 ft | 276 kts | 198° |
| 2026-05-08 01:32 | -4.42262 | -81.24070 | 4746 ft | 258 kts | 198° |
| 2026-05-08 01:32 | -4.43911 | -81.24624 | 4117 ft | 243 kts | 198° |
| 2026-05-08 01:32 | -4.45481 | -81.25155 | 3502 ft | 233 kts | 198° |
| 2026-05-08 01:32 | -4.46992 | -81.25663 | 2875 ft | 225 kts | 198° |
| 2026-05-08 01:33 | -4.48460 | -81.26154 | 2249 ft | 219 kts | 198° |
| 2026-05-08 01:33 | -4.49899 | -81.26559 | 1667 ft | 210 kts | 186° |
| 2026-05-08 01:33 | -4.51308 | -81.26496 | 1098 ft | 194 kts | 173° |
| 2026-05-08 01:33 | -4.52552 | -81.26335 | 821 ft | 167 kts | 171° |
| 2026-05-08 01:34 | -4.53598 | -81.26107 | 796 ft | 146 kts | 170° |
| 2026-05-08 01:34 | -4.54568 | -81.25952 | 602 ft | 138 kts | 170° |
| 2026-05-08 01:34 | -4.55499 | -81.25777 | 456 ft | 135 kts | 173° |
| 2026-05-08 01:34 | -4.56426 | -81.25626 | 333 ft | 134 kts | 170° |
| 2026-05-08 01:35 | -4.57302 | -81.25466 | 275 ft | 110 kts | 169° |
| 2026-05-08 01:35 | -4.57888 | -81.25366 | 277 ft | 58 kts | 169° |
| 2026-05-08 01:35 | -4.58158 | -81.25314 | 276 ft | 22 kts | 168° |
| 2026-05-08 01:35 | -4.58295 | -81.25292 | 276 ft | 21 kts | 171° |
| 2026-05-08 01:36 | -4.58441 | -81.25267 | 276 ft | 22 kts | 169° |
| 2026-05-08 01:36 | -4.58583 | -81.25242 | 277 ft | 20 kts | 173° |
| 2026-05-08 01:36 | -4.58687 | -81.25230 | 277 ft | 4 kts | 147° |
| 2026-05-08 01:36 | -4.58686 | -81.25224 | 277 ft | 0 kts | 90° |
| 2026-05-08 01:37 | -4.58689 | -81.25216 | 277 ft | 4 kts | 107° |
| 2026-05-08 01:37 | -4.58690 | -81.25162 | 276 ft | 11 kts | 60° |
| 2026-05-08 01:37 | -4.58614 | -81.25104 | 276 ft | 15 kts | 32° |
| 2026-05-08 01:37 | -4.58537 | -81.25076 | 276 ft | 11 kts | 356° |
| 2026-05-08 01:38 | -4.58465 | -81.25091 | 276 ft | 10 kts | 348° |
| 2026-05-08 01:38 | -4.58401 | -81.25103 | 276 ft | 9 kts | 349° |
| 2026-05-08 01:38 | -4.58300 | -81.25120 | 276 ft | 16 kts | 351° |
| 2026-05-08 01:38 | -4.58193 | -81.25138 | 276 ft | 15 kts | 350° |
| 2026-05-08 01:39 | -4.58098 | -81.25154 | 276 ft | 13 kts | 350° |
| 2026-05-08 01:39 | -4.58008 | -81.25170 | 276 ft | 14 kts | 349° |
| 2026-05-08 01:39 | -4.57886 | -81.25192 | 275 ft | 19 kts | 350° |
| 2026-05-08 01:39 | -4.57754 | -81.25213 | 275 ft | 19 kts | 350° |
| 2026-05-08 01:40 | -4.57629 | -81.25237 | 275 ft | 17 kts | 349° |
| 2026-05-08 01:40 | -4.57539 | -81.25270 | 275 ft | 12 kts | 301° |
| 2026-05-08 01:40 | -4.57545 | -81.25361 | 274 ft | 15 kts | 258° |
| 2026-05-08 01:40 | -4.57554 | -81.25425 | 273 ft | 7 kts | 252° |
| 2026-05-08 01:41 | -4.57567 | -81.25484 | 274 ft | 10 kts | 259° |
| 2026-05-08 01:41 | -4.57578 | -81.25544 | 277 ft | 8 kts | 259° |
| 2026-05-08 01:41 | -4.57583 | -81.25572 | 275 ft | 0 kts | 259° |